Detall de PIREP

Printer-friendly versionPDF version

[2016/06/26 08:46:00]
Flight IATA:CT1004
Pilot Number:012
Company ICAO:CAT
Aircraft Type:F70/A
PAX:79
Aircraft Registration:PFJ
Departing Airport: LFMP
Destination Airport: LEIB
Alternate Airport:LEPA
Online: VATSIM
Route:BGR UN855 POS
Flight Level:F270
No Slew and time accel
No pause
Crash detect
Detect pilot in Cockpit between each 30 and 45 minutes
08:46 Zero fuel Weight: 71204 Lbs, Fuel Weight: 8498 Lbs
08:46 VATSIM:LFMP 260830Z AUTO 33013KT 300V360 9999 OVC060 22/09 Q1019 NOSIG
08:46 VATSIM:LEIB 260830Z 07011KT 040V100 9999 FEW018 24/18 Q1017 NOSIG
08:46 FLAMA DEL CANIGO
08:47 Parking Brakes off
08:50 Take-off
08:50 Take off Weight: 79449 Lbs
08:50 Wind: 325º @ 013 Knots Heading: 326º
08:50 POS N42º 44´ 53´´ E002º 51´ 59´´
08:50 Gear Up: 152 Knots
08:50 Flaps:2 at 152 Knots
08:51 Flaps:1 at 174 Knots
08:51 Flaps:0 at 201 Knots
09:04 TOC
09:04 Fuel Weight: 6499 Lb
09:05 Wind:251º@022 Knots Heading: 200º Ground Speed: 281 Knots Altitude 27135 ft
09:20 Wind:245º@041 Knots Heading: 186º Ground Speed: 426 Knots Altitude 27132 ft
09:28 TOD
09:28 Fuel Weight: 4392 Lb
09:35 Wind:242º@024 Knots Heading: 238º Ground Speed: 333 Knots Altitude 15980 ft
09:43 Flaps:1 at 205 Knots
09:44 Flaps:2 at 170 Knots
09:45 Gear Down: 152 Knots
09:46 Flaps:3 at 170 Knots
09:47 Flaps:4 at 157 Knots
09:50 Wind:081º@013 Knots Heading: 064º Ground Speed: 120 Knots Altitude 770 ft
09:51 TouchDown:Rate -181 ft/min Speed: 110 Knots
09:51 VATSIM:LEIB 260930Z 07013KT 030V100 9999 FEW018 25/18 Q1017 NOSIG
09:51 Land
09:51 Wind:080º@013 Knots
09:51 Heading: 057º
09:51 Flight Duration: 01:01
09:51 Landing Weight: 74403 Lbs
09:51 POS N38º 52´ 25´´ E001º 22´ 31´´
09:54 Parking brakes on
09:54 Block to Block Duration: 01:07
09:54 Final Fuel: 3062 Lbls
09:54 Spent Fuel: 5436 Lbls
09:54 Flight Length: 328 NM
09:54 TOD Land Length: 100 NM

Exportar CSV

Powered by Drupal - Modified by Danger4k